Terminal Aerodrome Forecast
Issued by NWS

Home | Current Version | Previous Version | Text Only | Print | Product List | Glossary On
Versions: 1 2 3 4 5 6 7 8 9 10 11 12 13 14 15
000
FTUS46 KMFR 241700 RRA
TAFOTH
TAF
KOTH 241754Z 2418/2518 09006KT P6SM -RA SCT040 BKN070
     FM242000 10008KT P6SM -RA BKN035 BKN050
     FM250200 15010KT P6SM SCT050 BKN080
     FM251000 17015G25KT P6SM -RA BKN035 OVC050=

USA.gov is the U.S. government's official web portal to all federal, state and local government web resources and services.